CheckWX is a tool to help pilots better visualize weather data.  It is not intended as a substitute for an official pre-flight weather briefing.

21:02:23 UTC

KRMY METAR
Brooks Field Airport
Marshall, Michigan, USA
Current

29 mins ago

KRMY 232033Z AUTO 26014G23KT 10SM CLR 23/08 A2998 RMK AO2
Observed
May-23 @ 20:33 UTC
Wind
  • 260° at 14 KTS
  • Gusting to 23 KTS
Visibility
10 SM
Flight Rules
VFR
Cloud Levels
  • Clear skies
Temperature
23°C / 73°F
Dewpoint
C / 46°F
Humidity
38%
Altimeter
29.98" Hg
Pressure
1015.22 hPa
Previous

3 hours ago

KRMY 231817Z AUTO 26014G27KT 10SM CLR 23/09 A2997 RMK AO2
Observed
May-23 @ 18:17 UTC
Wind
  • 260° at 14 KTS
  • Gusting to 27 KTS
Visibility
10 SM
Flight Rules
VFR
Cloud Levels
  • Clear skies
Temperature
23°C / 73°F
Dewpoint
C / 48°F
Humidity
41%
Altimeter
29.97" Hg
Pressure
1014.92 hPa
Previous

3 hours ago

KRMY 231739Z AUTO 26017G23KT 10SM CLR 23/11 A2997 RMK AO2
Observed
May-23 @ 17:39 UTC
Wind
  • 260° at 17 KTS
  • Gusting to 23 KTS
Visibility
10 SM
Flight Rules
VFR
Cloud Levels
  • Clear skies
Temperature
23°C / 73°F
Dewpoint
11°C / 52°F
Humidity
47%
Altimeter
29.97" Hg
Pressure
1014.92 hPa